sensor_id;sensor_type;location;lat;lon;timestamp;temperature;humidity
27741;DHT22;15134;48.768;9.184;2023-02-26T00:01:29;2.90;99.90
27741;DHT22;15134;48.768;9.184;2023-02-26T00:03:57;3.00;99.90
27741;DHT22;15134;48.768;9.184;2023-02-26T00:06:24;3.00;99.90
27741;DHT22;15134;48.768;9.184;2023-02-26T00:08:50;3.00;99.90
27741;DHT22;15134;48.768;9.184;2023-02-26T00:11:18;3.00;99.90
27741;DHT22;15134;48.768;9.184;2023-02-26T00:13:45;3.00;99.90
27741;DHT22;15134;48.768;9.184;2023-02-26T00:16:34;2.90;99.90
27741;DHT22;15134;48.768;9.184;2023-02-26T00:19:03;2.80;99.90
27741;DHT22;15134;48.768;9.184;2023-02-26T00:21:30;2.90;99.90
27741;DHT22;15134;48.768;9.184;2023-02-26T00:23:59;2.90;99.90
27741;DHT22;15134;48.768;9.184;2023-02-26T00:26:27;2.90;99.90
27741;DHT22;15134;48.768;9.184;2023-02-26T00:28:54;2.80;99.90
27741;DHT22;15134;48.768;9.184;2023-02-26T00:31:26;2.70;99.90
27741;DHT22;15134;48.768;9.184;2023-02-26T00:33:58;2.50;99.90
27741;DHT22;15134;48.768;9.184;2023-02-26T00:41:44;2.20;99.90
27741;DHT22;15134;48.768;9.184;2023-02-26T00:44:10;2.30;99.90
27741;DHT22;15134;48.768;9.184;2023-02-26T00:46:43;2.40;99.90
27741;DHT22;15134;48.768;9.184;2023-02-26T00:52:14;2.50;99.90
27741;DHT22;15134;48.768;9.184;2023-02-26T00:54:50;2.40;99.90
27741;DHT22;15134;48.768;9.184;2023-02-26T00:57:26;2.30;99.90
27741;DHT22;15134;48.768;9.184;2023-02-26T00:59:54;2.30;99.90
27741;DHT22;15134;48.768;9.184;2023-02-26T01:02:20;2.40;99.90
27741;DHT22;15134;48.768;9.184;2023-02-26T01:04:46;2.40;99.90
27741;DHT22;15134;48.768;9.184;2023-02-26T01:07:13;2.50;99.90
27741;DHT22;15134;48.768;9.184;2023-02-26T01:09:41;2.60;99.90
27741;DHT22;15134;48.768;9.184;2023-02-26T01:12:10;2.60;99.90
27741;DHT22;15134;48.768;9.184;2023-02-26T01:14:43;2.60;99.90
27741;DHT22;15134;48.768;9.184;2023-02-26T01:19:48;2.50;99.90
27741;DHT22;15134;48.768;9.184;2023-02-26T01:22:22;2.40;99.90
27741;DHT22;15134;48.768;9.184;2023-02-26T01:24:55;2.30;99.90
27741;DHT22;15134;48.768;9.184;2023-02-26T01:27:24;2.20;99.90
27741;DHT22;15134;48.768;9.184;2023-02-26T01:29:50;2.20;99.90
27741;DHT22;15134;48.768;9.184;2023-02-26T01:35:20;2.20;99.90
27741;DHT22;15134;48.768;9.184;2023-02-26T01:38:03;2.00;99.90
27741;DHT22;15134;48.768;9.184;2023-02-26T01:41:42;1.90;99.90
27741;DHT22;15134;48.768;9.184;2023-02-26T01:46:30;1.70;99.90
27741;DHT22;15134;48.768;9.184;2023-02-26T01:49:00;1.60;99.90
27741;DHT22;15134;48.768;9.184;2023-02-26T01:51:52;1.70;99.90
27741;DHT22;15134;48.768;9.184;2023-02-26T01:54:24;1.60;99.90
27741;DHT22;15134;48.768;9.184;2023-02-26T01:57:11;1.60;99.90
27741;DHT22;15134;48.768;9.184;2023-02-26T01:59:49;1.70;99.90
27741;DHT22;15134;48.768;9.184;2023-02-26T02:02:21;1.70;99.90
27741;DHT22;15134;48.768;9.184;2023-02-26T02:04:52;1.80;99.90
27741;DHT22;15134;48.768;9.184;2023-02-26T02:07:24;1.80;99.90
27741;DHT22;15134;48.768;9.184;2023-02-26T02:09:50;1.70;99.90
27741;DHT22;15134;48.768;9.184;2023-02-26T02:12:36;1.50;99.90
27741;DHT22;15134;48.768;9.184;2023-02-26T02:15:19;1.40;99.90
27741;DHT22;15134;48.768;9.184;2023-02-26T02:20:28;1.40;99.90
27741;DHT22;15134;48.768;9.184;2023-02-26T02:33:24;1.40;99.90
27741;DHT22;15134;48.768;9.184;2023-02-26T02:36:00;1.20;99.90
27741;DHT22;15134;48.768;9.184;2023-02-26T02:38:34;1.20;99.90
27741;DHT22;15134;48.768;9.184;2023-02-26T02:41:29;1.30;99.90
27741;DHT22;15134;48.768;9.184;2023-02-26T02:43:59;1.40;99.90
27741;DHT22;15134;48.768;9.184;2023-02-26T02:46:29;1.30;99.90
27741;DHT22;15134;48.768;9.184;2023-02-26T02:49:07;1.20;99.90
27741;DHT22;15134;48.768;9.184;2023-02-26T02:51:46;1.20;99.90
27741;DHT22;15134;48.768;9.184;2023-02-26T02:54:25;1.20;99.90
27741;DHT22;15134;48.768;9.184;2023-02-26T02:56:57;1.20;99.90
27741;DHT22;15134;48.768;9.184;2023-02-26T02:59:32;1.10;99.90
27741;DHT22;15134;48.768;9.184;2023-02-26T03:02:08;1.10;99.90
27741;DHT22;15134;48.768;9.184;2023-02-26T03:04:36;1.10;99.90
27741;DHT22;15134;48.768;9.184;2023-02-26T03:07:02;1.10;99.90
27741;DHT22;15134;48.768;9.184;2023-02-26T03:09:28;1.20;99.90
27741;DHT22;15134;48.768;9.184;2023-02-26T03:11:53;1.20;99.90
27741;DHT22;15134;48.768;9.184;2023-02-26T03:14:19;1.20;99.90
27741;DHT22;15134;48.768;9.184;2023-02-26T03:17:04;1.10;99.90
27741;DHT22;15134;48.768;9.184;2023-02-26T03:25:30;1.20;99.90
27741;DHT22;15134;48.768;9.184;2023-02-26T03:28:31;1.20;99.90
27741;DHT22;15134;48.768;9.184;2023-02-26T03:31:30;1.30;99.90
27741;DHT22;15134;48.768;9.184;2023-02-26T03:39:42;1.50;99.90
27741;DHT22;15134;48.768;9.184;2023-02-26T03:42:25;1.40;99.90
27741;DHT22;15134;48.768;9.184;2023-02-26T03:45:02;1.40;99.90
27741;DHT22;15134;48.768;9.184;2023-02-26T03:47:31;1.30;99.90
27741;DHT22;15134;48.768;9.184;2023-02-26T03:50:13;1.10;99.90
27741;DHT22;15134;48.768;9.184;2023-02-26T03:52:51;1.10;99.90
27741;DHT22;15134;48.768;9.184;2023-02-26T03:56:21;1.10;99.90
27741;DHT22;15134;48.768;9.184;2023-02-26T03:59:03;1.10;99.90
27741;DHT22;15134;48.768;9.184;2023-02-26T04:02:02;1.20;99.90
27741;DHT22;15134;48.768;9.184;2023-02-26T04:06:58;1.10;99.90
27741;DHT22;15134;48.768;9.184;2023-02-26T04:09:25;1.10;99.90
27741;DHT22;15134;48.768;9.184;2023-02-26T04:12:00;1.10;99.90
27741;DHT22;15134;48.768;9.184;2023-02-26T04:14:25;1.10;99.90
27741;DHT22;15134;48.768;9.184;2023-02-26T04:16:52;1.00;99.90
27741;DHT22;15134;48.768;9.184;2023-02-26T04:19:18;1.10;99.90
27741;DHT22;15134;48.768;9.184;2023-02-26T04:21:45;1.10;99.90
27741;DHT22;15134;48.768;9.184;2023-02-26T04:24:13;1.10;99.90
27741;DHT22;15134;48.768;9.184;2023-02-26T04:26:38;1.10;99.90
27741;DHT22;15134;48.768;9.184;2023-02-26T04:29:05;1.00;99.90
27741;DHT22;15134;48.768;9.184;2023-02-26T04:31:31;1.00;99.90
27741;DHT22;15134;48.768;9.184;2023-02-26T04:33:58;0.90;99.90
27741;DHT22;15134;48.768;9.184;2023-02-26T04:36:24;0.70;99.90
27741;DHT22;15134;48.768;9.184;2023-02-26T04:38:49;0.60;99.90
27741;DHT22;15134;48.768;9.184;2023-02-26T04:41:21;0.60;99.90
27741;DHT22;15134;48.768;9.184;2023-02-26T04:43:48;0.50;99.90
27741;DHT22;15134;48.768;9.184;2023-02-26T04:46:21;0.50;99.90
27741;DHT22;15134;48.768;9.184;2023-02-26T04:48:46;0.60;99.90
27741;DHT22;15134;48.768;9.184;2023-02-26T04:51:12;0.70;99.90
27741;DHT22;15134;48.768;9.184;2023-02-26T04:53:38;0.80;99.90
27741;DHT22;15134;48.768;9.184;2023-02-26T04:56:05;0.80;99.90
27741;DHT22;15134;48.768;9.184;2023-02-26T04:58:33;0.80;99.90
27741;DHT22;15134;48.768;9.184;2023-02-26T05:01:04;0.80;99.90
27741;DHT22;15134;48.768;9.184;2023-02-26T05:03:30;0.90;99.90
27741;DHT22;15134;48.768;9.184;2023-02-26T05:05:56;1.10;99.90
27741;DHT22;15134;48.768;9.184;2023-02-26T05:08:22;1.00;99.90
27741;DHT22;15134;48.768;9.184;2023-02-26T05:10:50;1.00;99.90
27741;DHT22;15134;48.768;9.184;2023-02-26T05:13:17;0.90;99.90
27741;DHT22;15134;48.768;9.184;2023-02-26T05:15:43;0.80;99.90
27741;DHT22;15134;48.768;9.184;2023-02-26T05:18:10;0.80;99.90
27741;DHT22;15134;48.768;9.184;2023-02-26T05:20:36;0.80;99.90
27741;DHT22;15134;48.768;9.184;2023-02-26T05:23:03;0.80;99.90
27741;DHT22;15134;48.768;9.184;2023-02-26T05:25:29;0.80;99.90
27741;DHT22;15134;48.768;9.184;2023-02-26T05:27:55;0.80;99.90
27741;DHT22;15134;48.768;9.184;2023-02-26T05:30:23;0.80;99.90
27741;DHT22;15134;48.768;9.184;2023-02-26T05:32:48;0.80;99.90
27741;DHT22;15134;48.768;9.184;2023-02-26T05:35:14;0.90;99.90
27741;DHT22;15134;48.768;9.184;2023-02-26T05:37:43;0.80;99.90
27741;DHT22;15134;48.768;9.184;2023-02-26T05:40:09;0.80;99.90
27741;DHT22;15134;48.768;9.184;2023-02-26T05:42:36;0.60;99.90
27741;DHT22;15134;48.768;9.184;2023-02-26T05:45:02;0.60;99.90
27741;DHT22;15134;48.768;9.184;2023-02-26T05:47:29;0.40;99.90
27741;DHT22;15134;48.768;9.184;2023-02-26T05:49:55;0.40;99.90
27741;DHT22;15134;48.768;9.184;2023-02-26T05:52:21;0.40;99.90
27741;DHT22;15134;48.768;9.184;2023-02-26T05:54:47;0.50;99.90
27741;DHT22;15134;48.768;9.184;2023-02-26T05:57:12;0.50;99.90
27741;DHT22;15134;48.768;9.184;2023-02-26T05:59:38;0.50;99.90
27741;DHT22;15134;48.768;9.184;2023-02-26T06:02:04;0.30;99.90
27741;DHT22;15134;48.768;9.184;2023-02-26T06:04:30;0.30;99.90
27741;DHT22;15134;48.768;9.184;2023-02-26T06:06:56;0.30;99.90
27741;DHT22;15134;48.768;9.184;2023-02-26T06:09:22;0.30;99.90
27741;DHT22;15134;48.768;9.184;2023-02-26T06:11:47;0.30;99.90
27741;DHT22;15134;48.768;9.184;2023-02-26T06:14:16;0.20;99.90
27741;DHT22;15134;48.768;9.184;2023-02-26T06:16:42;0.00;99.90
27741;DHT22;15134;48.768;9.184;2023-02-26T06:19:07;0.00;99.90
27741;DHT22;15134;48.768;9.184;2023-02-26T06:21:33;0.00;99.90
27741;DHT22;15134;48.768;9.184;2023-02-26T06:23:59;0.10;99.90
27741;DHT22;15134;48.768;9.184;2023-02-26T06:26:26;0.20;99.90
27741;DHT22;15134;48.768;9.184;2023-02-26T06:28:52;0.20;99.90
27741;DHT22;15134;48.768;9.184;2023-02-26T06:31:18;0.10;99.90
27741;DHT22;15134;48.768;9.184;2023-02-26T06:33:43;0.10;99.90
27741;DHT22;15134;48.768;9.184;2023-02-26T06:36:12;0.20;99.90
27741;DHT22;15134;48.768;9.184;2023-02-26T06:38:38;0.20;99.90
27741;DHT22;15134;48.768;9.184;2023-02-26T06:41:03;0.20;99.90
27741;DHT22;15134;48.768;9.184;2023-02-26T06:43:29;0.10;99.90
27741;DHT22;15134;48.768;9.184;2023-02-26T06:45:58;0.30;99.90
27741;DHT22;15134;48.768;9.184;2023-02-26T06:48:25;0.50;99.90
27741;DHT22;15134;48.768;9.184;2023-02-26T06:50:51;0.60;99.90
27741;DHT22;15134;48.768;9.184;2023-02-26T06:53:17;0.80;99.90
27741;DHT22;15134;48.768;9.184;2023-02-26T06:55:44;0.70;99.90
27741;DHT22;15134;48.768;9.184;2023-02-26T06:58:10;0.50;99.90
27741;DHT22;15134;48.768;9.184;2023-02-26T07:00:36;0.50;99.90
27741;DHT22;15134;48.768;9.184;2023-02-26T07:03:03;0.20;99.90
27741;DHT22;15134;48.768;9.184;2023-02-26T07:05:29;0.30;99.90
27741;DHT22;15134;48.768;9.184;2023-02-26T07:07:54;0.40;99.90
27741;DHT22;15134;48.768;9.184;2023-02-26T07:10:21;0.50;99.90
27741;DHT22;15134;48.768;9.184;2023-02-26T07:12:46;0.70;99.90
27741;DHT22;15134;48.768;9.184;2023-02-26T07:15:13;0.90;99.90
27741;DHT22;15134;48.768;9.184;2023-02-26T07:17:39;1.00;99.90
27741;DHT22;15134;48.768;9.184;2023-02-26T07:20:06;1.00;99.90
27741;DHT22;15134;48.768;9.184;2023-02-26T07:22:35;1.00;99.90
27741;DHT22;15134;48.768;9.184;2023-02-26T07:25:05;1.20;99.90
27741;DHT22;15134;48.768;9.184;2023-02-26T07:27:31;1.20;99.90
27741;DHT22;15134;48.768;9.184;2023-02-26T07:29:58;1.10;99.90
27741;DHT22;15134;48.768;9.184;2023-02-26T07:32:25;1.00;99.90
27741;DHT22;15134;48.768;9.184;2023-02-26T07:34:51;1.20;99.90
27741;DHT22;15134;48.768;9.184;2023-02-26T07:37:17;1.20;99.90
27741;DHT22;15134;48.768;9.184;2023-02-26T07:39:43;1.50;99.90
27741;DHT22;15134;48.768;9.184;2023-02-26T07:42:09;1.60;99.90
27741;DHT22;15134;48.768;9.184;2023-02-26T07:44:37;1.90;99.90
27741;DHT22;15134;48.768;9.184;2023-02-26T07:47:03;2.30;99.90
27741;DHT22;15134;48.768;9.184;2023-02-26T07:49:30;2.50;99.90
27741;DHT22;15134;48.768;9.184;2023-02-26T07:51:57;2.40;99.90
27741;DHT22;15134;48.768;9.184;2023-02-26T07:54:23;2.40;99.90
27741;DHT22;15134;48.768;9.184;2023-02-26T07:56:48;2.50;99.90
27741;DHT22;15134;48.768;9.184;2023-02-26T07:59:18;2.40;99.90
27741;DHT22;15134;48.768;9.184;2023-02-26T08:01:43;2.20;99.90
27741;DHT22;15134;48.768;9.184;2023-02-26T08:04:09;1.90;99.90
27741;DHT22;15134;48.768;9.184;2023-02-26T08:06:35;1.70;99.90
27741;DHT22;15134;48.768;9.184;2023-02-26T08:09:01;1.70;99.90
27741;DHT22;15134;48.768;9.184;2023-02-26T08:11:33;1.60;99.90
27741;DHT22;15134;48.768;9.184;2023-02-26T08:14:09;1.70;99.90
27741;DHT22;15134;48.768;9.184;2023-02-26T08:16:35;2.00;99.90
27741;DHT22;15134;48.768;9.184;2023-02-26T08:19:02;2.20;99.90
27741;DHT22;15134;48.768;9.184;2023-02-26T08:21:27;2.50;99.90
27741;DHT22;15134;48.768;9.184;2023-02-26T08:23:53;2.90;99.90
27741;DHT22;15134;48.768;9.184;2023-02-26T08:26:19;3.20;99.90
27741;DHT22;15134;48.768;9.184;2023-02-26T08:28:45;3.20;99.90
27741;DHT22;15134;48.768;9.184;2023-02-26T08:31:14;2.90;99.90
27741;DHT22;15134;48.768;9.184;2023-02-26T08:33:42;2.40;99.90
27741;DHT22;15134;48.768;9.184;2023-02-26T08:36:09;2.10;99.90
27741;DHT22;15134;48.768;9.184;2023-02-26T08:38:43;2.00;99.90
27741;DHT22;15134;48.768;9.184;2023-02-26T08:41:09;1.90;99.90
27741;DHT22;15134;48.768;9.184;2023-02-26T08:43:35;1.70;99.90
27741;DHT22;15134;48.768;9.184;2023-02-26T08:46:01;1.50;99.90
27741;DHT22;15134;48.768;9.184;2023-02-26T08:48:30;1.40;99.90
27741;DHT22;15134;48.768;9.184;2023-02-26T08:50:56;1.30;99.90
27741;DHT22;15134;48.768;9.184;2023-02-26T08:53:22;1.20;99.90
27741;DHT22;15134;48.768;9.184;2023-02-26T08:55:49;1.10;99.90
27741;DHT22;15134;48.768;9.184;2023-02-26T08:58:16;1.00;99.90
27741;DHT22;15134;48.768;9.184;2023-02-26T09:00:42;1.10;99.90
27741;DHT22;15134;48.768;9.184;2023-02-26T09:05:50;1.10;99.90
27741;DHT22;15134;48.768;9.184;2023-02-26T09:08:16;1.00;99.90
27741;DHT22;15134;48.768;9.184;2023-02-26T09:10:42;0.90;99.90
27741;DHT22;15134;48.768;9.184;2023-02-26T09:13:08;0.80;99.90
27741;DHT22;15134;48.768;9.184;2023-02-26T09:15:34;0.80;99.90
27741;DHT22;15134;48.768;9.184;2023-02-26T09:18:00;0.80;99.90
27741;DHT22;15134;48.768;9.184;2023-02-26T09:20:26;0.80;99.90
27741;DHT22;15134;48.768;9.184;2023-02-26T09:22:52;0.90;99.90
27741;DHT22;15134;48.768;9.184;2023-02-26T09:25:18;1.00;99.90
27741;DHT22;15134;48.768;9.184;2023-02-26T09:27:43;1.10;99.90
27741;DHT22;15134;48.768;9.184;2023-02-26T09:30:10;1.20;99.90
27741;DHT22;15134;48.768;9.184;2023-02-26T09:32:36;1.10;99.90
27741;DHT22;15134;48.768;9.184;2023-02-26T09:35:03;1.10;99.90
27741;DHT22;15134;48.768;9.184;2023-02-26T09:37:30;1.20;99.90
27741;DHT22;15134;48.768;9.184;2023-02-26T09:39:55;1.20;99.90
27741;DHT22;15134;48.768;9.184;2023-02-26T09:44:47;0.80;99.90
27741;DHT22;15134;48.768;9.184;2023-02-26T09:47:21;0.80;99.90
27741;DHT22;15134;48.768;9.184;2023-02-26T09:50:02;0.70;99.90
27741;DHT22;15134;48.768;9.184;2023-02-26T09:52:43;0.80;99.90
27741;DHT22;15134;48.768;9.184;2023-02-26T09:55:30;0.80;99.90
27741;DHT22;15134;48.768;9.184;2023-02-26T09:58:02;0.80;99.90
27741;DHT22;15134;48.768;9.184;2023-02-26T10:01:03;0.80;99.90
27741;DHT22;15134;48.768;9.184;2023-02-26T10:03:45;0.80;99.90
27741;DHT22;15134;48.768;9.184;2023-02-26T10:06:29;0.70;99.90
27741;DHT22;15134;48.768;9.184;2023-02-26T10:17:33;0.80;99.90
27741;DHT22;15134;48.768;9.184;2023-02-26T10:20:05;0.90;99.90
27741;DHT22;15134;48.768;9.184;2023-02-26T10:22:43;1.00;99.90
27741;DHT22;15134;48.768;9.184;2023-02-26T10:25:16;1.00;99.90
27741;DHT22;15134;48.768;9.184;2023-02-26T10:27:56;1.10;99.90
27741;DHT22;15134;48.768;9.184;2023-02-26T10:30:36;1.10;99.90
27741;DHT22;15134;48.768;9.184;2023-02-26T10:35:44;1.10;99.90
27741;DHT22;15134;48.768;9.184;2023-02-26T10:38:16;1.10;99.90
27741;DHT22;15134;48.768;9.184;2023-02-26T10:40:44;1.00;99.90
27741;DHT22;15134;48.768;9.184;2023-02-26T10:51:37;1.00;99.90
27741;DHT22;15134;48.768;9.184;2023-02-26T10:54:20;0.80;99.90
27741;DHT22;15134;48.768;9.184;2023-02-26T10:56:47;1.00;99.90
27741;DHT22;15134;48.768;9.184;2023-02-26T10:59:14;1.10;99.90
27741;DHT22;15134;48.768;9.184;2023-02-26T11:01:40;1.20;99.90
27741;DHT22;15134;48.768;9.184;2023-02-26T11:04:15;1.20;99.90
27741;DHT22;15134;48.768;9.184;2023-02-26T11:06:50;1.10;99.90
27741;DHT22;15134;48.768;9.184;2023-02-26T11:09:31;1.20;99.90
27741;DHT22;15134;48.768;9.184;2023-02-26T11:14:32;1.30;99.90
27741;DHT22;15134;48.768;9.184;2023-02-26T11:17:00;1.40;99.90
27741;DHT22;15134;48.768;9.184;2023-02-26T11:19:37;1.50;99.90
27741;DHT22;15134;48.768;9.184;2023-02-26T11:22:04;1.70;99.90
27741;DHT22;15134;48.768;9.184;2023-02-26T11:24:35;1.70;99.90
27741;DHT22;15134;48.768;9.184;2023-02-26T11:27:04;1.80;99.90
27741;DHT22;15134;48.768;9.184;2023-02-26T11:29:38;1.80;99.90
27741;DHT22;15134;48.768;9.184;2023-02-26T11:32:06;1.70;99.90
27741;DHT22;15134;48.768;9.184;2023-02-26T11:34:32;1.70;99.90
27741;DHT22;15134;48.768;9.184;2023-02-26T11:36:59;1.80;99.90
27741;DHT22;15134;48.768;9.184;2023-02-26T11:39:28;1.70;99.90
27741;DHT22;15134;48.768;9.184;2023-02-26T11:41:56;1.70;99.90
27741;DHT22;15134;48.768;9.184;2023-02-26T11:44:31;1.70;99.90
27741;DHT22;15134;48.768;9.184;2023-02-26T11:47:03;1.80;99.90
27741;DHT22;15134;48.768;9.184;2023-02-26T11:49:29;1.70;99.90
27741;DHT22;15134;48.768;9.184;2023-02-26T11:54:49;1.60;99.90
27741;DHT22;15134;48.768;9.184;2023-02-26T11:57:23;1.60;99.90
27741;DHT22;15134;48.768;9.184;2023-02-26T11:59:51;1.50;99.90
27741;DHT22;15134;48.768;9.184;2023-02-26T12:02:20;1.60;99.90
27741;DHT22;15134;48.768;9.184;2023-02-26T12:04:52;1.70;99.90
27741;DHT22;15134;48.768;9.184;2023-02-26T12:07:19;1.60;99.90
27741;DHT22;15134;48.768;9.184;2023-02-26T12:09:46;1.50;99.90
27741;DHT22;15134;48.768;9.184;2023-02-26T12:18:19;1.60;99.90
27741;DHT22;15134;48.768;9.184;2023-02-26T12:21:11;1.80;99.90
27741;DHT22;15134;48.768;9.184;2023-02-26T12:23:53;1.90;99.90
27741;DHT22;15134;48.768;9.184;2023-02-26T12:26:42;1.90;99.90
27741;DHT22;15134;48.768;9.184;2023-02-26T12:32:14;2.00;99.90
27741;DHT22;15134;48.768;9.184;2023-02-26T12:34:54;1.90;99.90
27741;DHT22;15134;48.768;9.184;2023-02-26T12:42:59;1.50;99.90
27741;DHT22;15134;48.768;9.184;2023-02-26T13:05:11;2.20;99.90
27741;DHT22;15134;48.768;9.184;2023-02-26T13:19:28;2.10;99.90
27741;DHT22;15134;48.768;9.184;2023-02-26T13:24:37;2.20;99.90
27741;DHT22;15134;48.768;9.184;2023-02-26T13:27:05;2.00;99.90
27741;DHT22;15134;48.768;9.184;2023-02-26T13:29:35;2.00;99.90
27741;DHT22;15134;48.768;9.184;2023-02-26T13:32:15;2.00;99.90
27741;DHT22;15134;48.768;9.184;2023-02-26T13:34:58;2.10;99.90
27741;DHT22;15134;48.768;9.184;2023-02-26T13:37:29;2.10;99.90
27741;DHT22;15134;48.768;9.184;2023-02-26T13:40:01;2.10;99.90
27741;DHT22;15134;48.768;9.184;2023-02-26T13:45:40;2.30;99.90
27741;DHT22;15134;48.768;9.184;2023-02-26T13:57:20;2.50;99.90
27741;DHT22;15134;48.768;9.184;2023-02-26T13:59:52;2.60;99.90
27741;DHT22;15134;48.768;9.184;2023-02-26T14:04:58;2.70;99.90
27741;DHT22;15134;48.768;9.184;2023-02-26T14:10:32;2.70;99.90
27741;DHT22;15134;48.768;9.184;2023-02-26T14:15:59;2.70;99.90
27741;DHT22;15134;48.768;9.184;2023-02-26T14:18:29;2.60;99.90
27741;DHT22;15134;48.768;9.184;2023-02-26T14:21:33;2.60;99.90
27741;DHT22;15134;48.768;9.184;2023-02-26T14:24:04;2.50;99.90
27741;DHT22;15134;48.768;9.184;2023-02-26T14:26:33;2.60;99.90
27741;DHT22;15134;48.768;9.184;2023-02-26T14:34:19;3.00;99.90
27741;DHT22;15134;48.768;9.184;2023-02-26T14:36:54;3.10;99.90
27741;DHT22;15134;48.768;9.184;2023-02-26T14:39:30;3.20;99.90
27741;DHT22;15134;48.768;9.184;2023-02-26T14:42:03;3.10;99.90
27741;DHT22;15134;48.768;9.184;2023-02-26T14:44:35;3.00;99.90
27741;DHT22;15134;48.768;9.184;2023-02-26T14:47:02;2.80;99.90
27741;DHT22;15134;48.768;9.184;2023-02-26T14:49:54;2.70;99.90
27741;DHT22;15134;48.768;9.184;2023-02-26T14:52:42;2.60;99.90
27741;DHT22;15134;48.768;9.184;2023-02-26T14:55:26;2.60;99.90
27741;DHT22;15134;48.768;9.184;2023-02-26T14:58:14;2.60;99.90
27741;DHT22;15134;48.768;9.184;2023-02-26T15:00:50;2.60;99.90
27741;DHT22;15134;48.768;9.184;2023-02-26T15:11:31;2.80;99.90
27741;DHT22;15134;48.768;9.184;2023-02-26T15:22:47;2.60;99.90
27741;DHT22;15134;48.768;9.184;2023-02-26T15:25:31;2.50;99.90
27741;DHT22;15134;48.768;9.184;2023-02-26T15:27:59;2.50;99.90
27741;DHT22;15134;48.768;9.184;2023-02-26T15:30:26;2.30;99.90
27741;DHT22;15134;48.768;9.184;2023-02-26T15:33:03;2.20;99.90
27741;DHT22;15134;48.768;9.184;2023-02-26T15:35:31;2.30;99.90
27741;DHT22;15134;48.768;9.184;2023-02-26T15:38:00;2.30;99.90
27741;DHT22;15134;48.768;9.184;2023-02-26T15:40:29;2.30;99.90
27741;DHT22;15134;48.768;9.184;2023-02-26T15:42:57;2.30;99.90
27741;DHT22;15134;48.768;9.184;2023-02-26T15:45:41;2.40;99.90
27741;DHT22;15134;48.768;9.184;2023-02-26T15:48:16;2.40;99.90
27741;DHT22;15134;48.768;9.184;2023-02-26T15:50:46;2.40;99.90
27741;DHT22;15134;48.768;9.184;2023-02-26T15:53:17;2.50;99.90
27741;DHT22;15134;48.768;9.184;2023-02-26T15:55:50;2.50;99.90
27741;DHT22;15134;48.768;9.184;2023-02-26T15:58:27;2.60;99.90
27741;DHT22;15134;48.768;9.184;2023-02-26T16:00:55;2.60;99.90
27741;DHT22;15134;48.768;9.184;2023-02-26T16:03:30;2.60;99.90
27741;DHT22;15134;48.768;9.184;2023-02-26T16:05:57;2.60;99.90
27741;DHT22;15134;48.768;9.184;2023-02-26T16:08:24;2.60;99.90
27741;DHT22;15134;48.768;9.184;2023-02-26T16:10:52;2.50;99.90
27741;DHT22;15134;48.768;9.184;2023-02-26T16:13:38;2.30;99.90
27741;DHT22;15134;48.768;9.184;2023-02-26T16:16:20;2.30;99.90
27741;DHT22;15134;48.768;9.184;2023-02-26T16:18:48;2.20;99.90
27741;DHT22;15134;48.768;9.184;2023-02-26T16:21:30;2.20;99.90
27741;DHT22;15134;48.768;9.184;2023-02-26T16:23:58;2.10;99.90
27741;DHT22;15134;48.768;9.184;2023-02-26T16:26:31;2.00;99.90
27741;DHT22;15134;48.768;9.184;2023-02-26T16:29:05;1.90;99.90
27741;DHT22;15134;48.768;9.184;2023-02-26T16:31:32;1.90;99.90
27741;DHT22;15134;48.768;9.184;2023-02-26T16:34:00;1.90;99.90
27741;DHT22;15134;48.768;9.184;2023-02-26T16:36:31;2.00;99.90
27741;DHT22;15134;48.768;9.184;2023-02-26T16:39:29;2.00;99.90
27741;DHT22;15134;48.768;9.184;2023-02-26T16:42:18;2.00;99.90
27741;DHT22;15134;48.768;9.184;2023-02-26T16:44:50;2.00;99.90
27741;DHT22;15134;48.768;9.184;2023-02-26T16:47:21;2.00;99.90
27741;DHT22;15134;48.768;9.184;2023-02-26T16:49:48;1.90;99.90
27741;DHT22;15134;48.768;9.184;2023-02-26T16:52:18;1.90;99.90
27741;DHT22;15134;48.768;9.184;2023-02-26T16:54:54;1.90;99.90
27741;DHT22;15134;48.768;9.184;2023-02-26T16:57:35;1.90;99.90
27741;DHT22;15134;48.768;9.184;2023-02-26T17:00:05;1.80;99.90
27741;DHT22;15134;48.768;9.184;2023-02-26T17:02:35;1.80;99.90
27741;DHT22;15134;48.768;9.184;2023-02-26T17:05:28;1.90;99.90
27741;DHT22;15134;48.768;9.184;2023-02-26T17:08:04;1.90;99.90
27741;DHT22;15134;48.768;9.184;2023-02-26T17:10:47;1.90;99.90
27741;DHT22;15134;48.768;9.184;2023-02-26T17:13:23;1.90;99.90
27741;DHT22;15134;48.768;9.184;2023-02-26T17:15:49;1.90;99.90
27741;DHT22;15134;48.768;9.184;2023-02-26T17:18:16;1.80;99.90
27741;DHT22;15134;48.768;9.184;2023-02-26T17:20:43;1.80;99.90
27741;DHT22;15134;48.768;9.184;2023-02-26T17:23:14;1.80;99.90
27741;DHT22;15134;48.768;9.184;2023-02-26T17:25:49;1.80;99.90
27741;DHT22;15134;48.768;9.184;2023-02-26T17:28:31;1.80;99.90
27741;DHT22;15134;48.768;9.184;2023-02-26T17:31:00;1.70;99.90
27741;DHT22;15134;48.768;9.184;2023-02-26T17:33:26;1.70;99.90
27741;DHT22;15134;48.768;9.184;2023-02-26T17:35:58;1.60;99.90
27741;DHT22;15134;48.768;9.184;2023-02-26T17:38:25;1.60;99.90
27741;DHT22;15134;48.768;9.184;2023-02-26T17:40:52;1.50;99.90
27741;DHT22;15134;48.768;9.184;2023-02-26T17:43:23;1.50;99.90
27741;DHT22;15134;48.768;9.184;2023-02-26T17:45:50;1.60;99.90
27741;DHT22;15134;48.768;9.184;2023-02-26T17:48:16;1.60;99.90
27741;DHT22;15134;48.768;9.184;2023-02-26T17:50:55;1.60;99.90
27741;DHT22;15134;48.768;9.184;2023-02-26T17:53:23;1.60;99.90
27741;DHT22;15134;48.768;9.184;2023-02-26T17:55:52;1.50;99.90
27741;DHT22;15134;48.768;9.184;2023-02-26T17:58:29;1.50;99.90
27741;DHT22;15134;48.768;9.184;2023-02-26T18:00:56;1.40;99.90
27741;DHT22;15134;48.768;9.184;2023-02-26T18:03:23;1.40;99.90
27741;DHT22;15134;48.768;9.184;2023-02-26T18:05:50;1.40;99.90
27741;DHT22;15134;48.768;9.184;2023-02-26T18:08:27;1.30;99.90
27741;DHT22;15134;48.768;9.184;2023-02-26T18:10:54;1.20;99.90
27741;DHT22;15134;48.768;9.184;2023-02-26T18:13:20;1.20;99.90
27741;DHT22;15134;48.768;9.184;2023-02-26T18:15:47;1.10;99.90
27741;DHT22;15134;48.768;9.184;2023-02-26T18:18:14;1.10;99.90
27741;DHT22;15134;48.768;9.184;2023-02-26T18:20:41;1.10;99.90
27741;DHT22;15134;48.768;9.184;2023-02-26T18:23:08;1.10;99.90
27741;DHT22;15134;48.768;9.184;2023-02-26T18:25:39;1.10;99.90
27741;DHT22;15134;48.768;9.184;2023-02-26T18:28:08;1.10;99.90
27741;DHT22;15134;48.768;9.184;2023-02-26T18:30:36;1.10;99.90
27741;DHT22;15134;48.768;9.184;2023-02-26T18:33:05;1.10;99.90
27741;DHT22;15134;48.768;9.184;2023-02-26T18:35:31;1.10;99.90
27741;DHT22;15134;48.768;9.184;2023-02-26T18:37:58;1.10;99.90
27741;DHT22;15134;48.768;9.184;2023-02-26T18:40:25;1.10;99.90
27741;DHT22;15134;48.768;9.184;2023-02-26T18:42:51;1.00;99.90
27741;DHT22;15134;48.768;9.184;2023-02-26T18:45:18;1.00;99.90
27741;DHT22;15134;48.768;9.184;2023-02-26T18:47:45;1.00;99.90
27741;DHT22;15134;48.768;9.184;2023-02-26T18:50:15;1.00;99.90
27741;DHT22;15134;48.768;9.184;2023-02-26T18:52:42;1.00;99.90
27741;DHT22;15134;48.768;9.184;2023-02-26T18:55:10;0.90;99.90